Time;durP1;ratioP1;P1;durP2;ratioP2;P2;SDS_P1;SDS_P2;PMS_P1;PMS_P2;Temp;Humidity;BMP_temperature;BMP_pressure;BME280_temperature;BME280_humidity;BME280_pressure;Samples;Min_cycle;Max_cycle;Signal;HPM_P1;HPM_P2
2023/09/22 00:00:10;;;;;;;;;;;;;;;13.60;100.00;99752.72;5034686;28;1405;-80
2023/09/22 00:02:35;;;;;;;;;;;;;;;13.58;100.00;99755.47;5025277;28;1266;-80
2023/09/22 00:05:01;;;;;;;;;;;;;;;13.55;100.00;99755.81;5026735;28;1134;-80
2023/09/22 00:07:27;;;;;;;;;;;;;;;13.55;100.00;99750.59;5032369;28;1361;-81
2023/09/22 00:09:52;;;;;;;;;;;;;;;13.54;100.00;99756.81;5014432;28;1265;-80
2023/09/22 00:12:17;;;;;;;;;;;;;;;13.48;100.00;99754.88;5012523;28;1898;-80
2023/09/22 00:14:42;;;;;;;;;;;;;;;13.45;100.00;99761.22;5034745;28;1287;-80
2023/09/22 00:17:07;;;;;;;;;;;;;;;13.45;100.00;99765.63;5025720;28;1377;-79
2023/09/22 00:19:33;;;;;;;;;;;;;;;13.39;100.00;99771.50;5037689;28;1197;-80
2023/09/22 00:21:58;;;;;;;;;;;;;;;13.35;100.00;99765.81;5039876;28;1298;-80
2023/09/22 00:24:23;;;;;;;;;;;;;;;13.35;100.00;99775.44;5037425;28;1175;-80
2023/09/22 00:26:48;;;;;;;;;;;;;;;13.32;100.00;99757.56;5035203;28;1029;-80
2023/09/22 00:29:14;;;;;;;;;;;;;;;13.28;100.00;99765.69;5037405;28;1154;-80
2023/09/22 00:31:39;;;;;;;;;;;;;;;13.28;100.00;99770.09;5034840;28;1975;-79
2023/09/22 00:34:04;;;;;;;;;;;;;;;13.25;100.00;99767.84;5020993;28;1274;-79
2023/09/22 00:36:29;;;;;;;;;;;;;;;13.22;100.00;99771.56;5028496;28;1007;-79
2023/09/22 00:38:54;;;;;;;;;;;;;;;13.19;100.00;99771.88;5037206;28;1069;-80
2023/09/22 00:41:20;;;;;;;;;;;;;;;13.18;100.00;99770.25;5038400;28;1301;-80
2023/09/22 00:43:46;;;;;;;;;;;;;;;13.13;100.00;99772.56;5030452;28;1523;-79
2023/09/22 00:46:12;;;;;;;;;;;;;;;13.11;100.00;99764.09;5037270;28;1285;-80
2023/09/22 00:48:38;;;;;;;;;;;;;;;13.10;100.00;99770.28;5016054;28;1279;-80
2023/09/22 00:51:04;;;;;;;;;;;;;;;13.03;100.00;99777.13;5033871;28;1293;-78
2023/09/22 00:53:31;;;;;;;;;;;;;;;13.02;100.00;99763.31;5029920;28;1901;-80
2023/09/22 00:55:56;;;;;;;;;;;;;;;13.02;100.00;99778.13;5034731;28;1153;-80
2023/09/22 00:58:22;;;;;;;;;;;;;;;12.91;100.00;99778.47;5026924;28;1225;-80
2023/09/22 01:00:48;;;;;;;;;;;;;;;12.85;100.00;99776.53;5029793;28;1292;-80
2023/09/22 01:03:14;;;;;;;;;;;;;;;12.82;100.00;99780.25;5029947;28;1254;-80
2023/09/22 01:05:39;;;;;;;;;;;;;;;12.81;100.00;99783.03;5026094;28;1122;-79
2023/09/22 01:08:04;;;;;;;;;;;;;;;12.80;100.00;99786.63;5025092;28;1265;-80
2023/09/22 01:10:40;;;;;;;;;;;;;;;12.76;100.00;99786.94;5030680;28;1278;-80
2023/09/22 01:13:05;;;;;;;;;;;;;;;12.70;100.00;99777.19;5012804;28;1975;-80
2023/09/22 01:15:34;;;;;;;;;;;;;;;12.66;100.00;99775.06;5027512;28;1254;-80
2023/09/22 01:17:59;;;;;;;;;;;;;;;12.65;100.00;99763.03;5028167;28;1293;-81
2023/09/22 01:20:25;;;;;;;;;;;;;;;12.68;100.00;99773.94;5035474;28;1237;-80
2023/09/22 01:22:50;;;;;;;;;;;;;;;12.65;100.00;99769.06;5018841;28;1747;-79
2023/09/22 01:25:15;;;;;;;;;;;;;;;12.61;100.00;99772.97;5030393;28;1123;-79
2023/09/22 01:27:41;;;;;;;;;;;;;;;12.56;100.00;99783.06;5028927;28;1229;-80
2023/09/22 01:30:07;;;;;;;;;;;;;;;12.52;100.00;99788.75;5035783;28;1666;-80
2023/09/22 01:32:33;;;;;;;;;;;;;;;12.48;100.00;99793.44;5028326;28;1898;-80
2023/09/22 01:34:58;;;;;;;;;;;;;;;12.51;100.00;99798.34;5027224;28;1225;-80
2023/09/22 01:37:28;;;;;;;;;;;;;;;12.53;100.00;99800.78;5023238;28;1237;-80
2023/09/22 01:39:55;;;;;;;;;;;;;;;12.53;100.00;99780.78;5036571;28;1201;-79
2023/09/22 01:42:20;;;;;;;;;;;;;;;12.53;100.00;99785.16;5024803;28;1310;-80
2023/09/22 01:44:46;;;;;;;;;;;;;;;12.53;100.00;99785.16;5035948;28;1442;-80
2023/09/22 01:47:11;;;;;;;;;;;;;;;12.52;100.00;99779.16;5033148;28;1260;-79
2023/09/22 01:49:36;;;;;;;;;;;;;;;12.51;100.00;99772.34;5032327;28;1343;-80
2023/09/22 01:52:02;;;;;;;;;;;;;;;12.51;100.00;99767.13;5013057;28;1894;-80
2023/09/22 01:54:27;;;;;;;;;;;;;;;12.53;100.00;99759.97;5028037;28;1244;-80
2023/09/22 01:56:52;;;;;;;;;;;;;;;12.55;100.00;99762.41;5015898;28;1299;-80
2023/09/22 01:59:17;;;;;;;;;;;;;;;12.55;100.00;99771.00;5034335;28;1308;-79
2023/09/22 02:01:42;;;;;;;;;;;;;;;12.55;100.00;99768.41;5030573;28;1253;-80
2023/09/22 02:04:07;;;;;;;;;;;;;;;12.56;100.00;99787.44;5032873;28;1067;-79
2023/09/22 02:06:33;;;;;;;;;;;;;;;12.54;100.00;99779.78;5027664;28;1309;-80
2023/09/22 02:08:58;;;;;;;;;;;;;;;12.54;100.00;99782.41;5026487;28;1483;-80
2023/09/22 02:11:23;;;;;;;;;;;;;;;12.52;100.00;99789.56;5030888;28;1299;-80
2023/09/22 02:13:48;;;;;;;;;;;;;;;12.50;100.00;99791.50;5025135;28;1969;-80
2023/09/22 02:16:13;;;;;;;;;;;;;;;12.48;100.00;99793.44;5013225;28;1500;-79
2023/09/22 02:18:39;;;;;;;;;;;;;;;12.46;100.00;99800.63;5011823;28;1488;-79
2023/09/22 02:21:06;;;;;;;;;;;;;;;12.43;100.00;99791.34;5032944;28;1198;-80
2023/09/22 02:23:32;;;;;;;;;;;;;;;12.39;100.00;99789.25;5035335;28;1293;-80
2023/09/22 02:26:04;;;;;;;;;;;;;;;12.37;100.00;99781.59;5015252;28;1203;-79
2023/09/22 02:28:29;;;;;;;;;;;;;;;12.35;100.00;99782.72;5013698;28;1268;-80
2023/09/22 02:30:54;;;;;;;;;;;;;;;12.30;100.00;99780.63;5032723;28;1111;-78
2023/09/22 02:33:19;;;;;;;;;;;;;;;12.33;100.00;99784.66;5037729;28;1922;-80
2023/09/22 02:35:45;;;;;;;;;;;;;;;12.30;100.00;99779.81;5031458;28;1146;-80
2023/09/22 02:38:10;;;;;;;;;;;;;;;12.28;100.00;99786.97;5019380;28;1315;-80
2023/09/22 02:40:35;;;;;;;;;;;;;;;12.26;100.00;99799.28;5010058;28;1118;-80
2023/09/22 02:43:00;;;;;;;;;;;;;;;12.25;100.00;99802.88;5035346;28;1189;-80
2023/09/22 02:45:25;;;;;;;;;;;;;;;12.24;100.00;99794.25;5015074;28;1289;-80
2023/09/22 02:47:50;;;;;;;;;;;;;;;12.22;100.00;99794.44;5016941;28;1568;-80
2023/09/22 02:50:18;;;;;;;;;;;;;;;12.21;100.00;99791.97;5028766;28;1558;-80
2023/09/22 02:52:44;;;;;;;;;;;;;;;12.17;100.00;99812.28;5011438;28;1967;-79
2023/09/22 02:55:10;;;;;;;;;;;;;;;12.15;100.00;99798.63;5032674;28;965;-80
2023/09/22 02:57:36;;;;;;;;;;;;;;;12.11;100.00;99796.53;5031491;28;1208;-80
2023/09/22 03:00:07;;;;;;;;;;;;;;;12.10;100.00;99790.53;5029105;28;1515;-80
2023/09/22 03:02:32;;;;;;;;;;;;;;;12.10;100.00;99785.31;5015059;28;1660;-80
2023/09/22 03:04:57;;;;;;;;;;;;;;;12.08;100.00;99792.44;5029611;28;1285;-80
2023/09/22 03:07:23;;;;;;;;;;;;;;;12.07;100.00;99790.81;5032708;28;1269;-80
2023/09/22 03:09:48;;;;;;;;;;;;;;;12.06;100.00;99794.41;5012082;28;1729;-81
2023/09/22 03:12:13;;;;;;;;;;;;;;;12.03;100.00;99794.69;5026448;28;1973;-79
2023/09/22 03:14:38;;;;;;;;;;;;;;;12.01;100.00;99786.25;5029375;28;1380;-79
2023/09/22 03:17:04;;;;;;;;;;;;;;;11.98;100.00;99781.38;5033595;28;1261;-79
2023/09/22 03:19:29;;;;;;;;;;;;;;;11.96;100.00;99788.53;5025746;28;1194;-79
2023/09/22 03:21:55;;;;;;;;;;;;;;;11.92;100.00;99788.03;5030494;28;1356;-80
2023/09/22 03:24:20;;;;;;;;;;;;;;;11.90;100.00;99783.97;5029147;28;1571;-80
2023/09/22 03:26:46;;;;;;;;;;;;;;;11.90;100.00;99783.97;5018490;28;1211;-80
2023/09/22 03:29:11;;;;;;;;;;;;;;;11.89;100.00;99777.16;5014687;28;1319;-80
2023/09/22 03:31:36;;;;;;;;;;;;;;;11.88;100.00;99784.13;5026688;28;1890;-79
2023/09/22 03:34:02;;;;;;;;;;;;;;;11.86;100.00;99782.66;5035136;28;1080;-80
2023/09/22 03:36:30;;;;;;;;;;;;;;;11.82;100.00;99786.56;5036395;28;1320;-80
2023/09/22 03:38:57;;;;;;;;;;;;;;;11.83;100.00;99788.19;5041744;28;1174;-79
2023/09/22 03:41:25;;;;;;;;;;;;;;;11.83;100.00;99793.38;5015029;28;1297;-80
2023/09/22 03:43:51;;;;;;;;;;;;;;;11.83;100.00;99786.41;5039147;28;1196;-80
2023/09/22 03:46:16;;;;;;;;;;;;;;;11.84;100.00;99795.00;5032017;28;1561;-80
2023/09/22 03:48:41;;;;;;;;;;;;;;;11.83;100.00;99793.38;5028129;28;1236;-79
2023/09/22 03:51:07;;;;;;;;;;;;;;;11.81;100.00;99790.91;5037641;28;1206;-80
2023/09/22 03:53:32;;;;;;;;;;;;;;;11.82;100.00;99786.56;5032068;28;1898;-78
2023/09/22 03:55:58;;;;;;;;;;;;;;;11.82;100.00;99781.38;5036516;28;1209;-80
2023/09/22 03:58:23;;;;;;;;;;;;;;;11.81;100.00;99788.31;5014645;28;1313;-81
2023/09/22 04:00:48;;;;;;;;;;;;;;;11.79;100.00;99792.03;5035857;28;1364;-79
2023/09/22 04:03:15;;;;;;;;;;;;;;;11.77;100.00;99787.00;5029573;28;1191;-79
2023/09/22 04:05:40;;;;;;;;;;;;;;;11.77;100.00;99788.78;5017861;28;1573;-78
2023/09/22 04:08:05;;;;;;;;;;;;;;;11.75;100.00;99795.91;5034196;28;1300;-80
2023/09/22 04:10:33;;;;;;;;;;;;;;;11.74;100.00;99799.47;5038834;28;1194;-80
2023/09/22 04:12:58;;;;;;;;;;;;;;;11.73;100.00;99797.84;5017122;28;1910;-79
2023/09/22 04:15:23;;;;;;;;;;;;;;;11.73;100.00;99797.84;5035542;28;1221;-79
2023/09/22 04:17:50;;;;;;;;;;;;;;;11.73;100.00;99793.47;5033052;28;1209;-78
2023/09/22 04:20:18;;;;;;;;;;;;;;;11.73;100.00;99805.66;5006568;28;1449;-78
2023/09/22 04:22:43;;;;;;;;;;;;;;;11.73;100.00;99798.66;5032241;28;1505;-80
2023/09/22 04:25:11;;;;;;;;;;;;;;;11.74;100.00;99799.47;5014268;28;1607;-80
2023/09/22 04:27:43;;;;;;;;;;;;;;;11.74;100.00;99797.69;5030785;28;1169;-80
2023/09/22 04:30:09;;;;;;;;;;;;;;;11.75;100.00;99806.28;5030484;28;1088;-80
2023/09/22 04:32:35;;;;;;;;;;;;;;;11.74;100.00;99809.88;5021131;28;1910;-80
2023/09/22 04:35:00;;;;;;;;;;;;;;;11.74;100.00;99810.69;5035099;28;1286;-79
2023/09/22 04:37:26;;;;;;;;;;;;;;;11.75;100.00;99806.28;5029350;28;1136;-80
2023/09/22 04:39:52;;;;;;;;;;;;;;;11.76;100.00;99807.94;5036527;28;1245;-79
2023/09/22 04:42:17;;;;;;;;;;;;;;;11.79;100.00;99799.81;5026368;28;1392;-78
2023/09/22 04:44:43;;;;;;;;;;;;;;;11.80;100.00;99810.03;5036383;28;1286;-80
2023/09/22 04:47:08;;;;;;;;;;;;;;;11.80;100.00;99801.44;5039404;28;1061;-79
2023/09/22 04:49:33;;;;;;;;;;;;;;;11.81;100.00;99805.66;5035689;28;1361;-81
2023/09/22 04:51:58;;;;;;;;;;;;;;;11.82;100.00;99807.34;5027669;28;1953;-79
2023/09/22 04:54:24;;;;;;;;;;;;;;;11.81;100.00;99810.84;5007024;28;1444;-79
2023/09/22 04:56:49;;;;;;;;;;;;;;;11.79;100.00;99808.44;5034272;28;1300;-79
2023/09/22 04:59:17;;;;;;;;;;;;;;;11.79;100.00;99808.44;5031939;28;1464;-80
2023/09/22 05:01:42;;;;;;;;;;;;;;;11.80;100.00;99804.03;5032622;28;1247;-79
2023/09/22 05:04:08;;;;;;;;;;;;;;;11.79;100.00;99813.63;5036452;28;1241;-79
2023/09/22 05:06:33;;;;;;;;;;;;;;;11.76;100.00;99813.13;5017897;28;1577;-80
2023/09/22 05:08:59;;;;;;;;;;;;;;;11.73;100.00;99819.44;5020245;28;1462;-80
2023/09/22 05:11:25;;;;;;;;;;;;;;;11.72;100.00;99817.00;5037877;28;1109;-80
2023/09/22 05:13:50;;;;;;;;;;;;;;;11.70;100.00;99818.00;5034702;28;1957;-81
2023/09/22 05:16:18;;;;;;;;;;;;;;;11.67;100.00;99820.88;5032029;28;1142;-79
2023/09/22 05:18:43;;;;;;;;;;;;;;;11.68;100.00;99819.91;5035735;28;1289;-79
2023/09/22 05:21:12;;;;;;;;;;;;;;;11.68;100.00;99822.50;5020694;28;1479;-80
2023/09/22 05:23:37;;;;;;;;;;;;;;;11.65;100.00;99817.66;5025908;28;1313;-81
2023/09/22 05:26:09;;;;;;;;;;;;;;;11.65;100.00;99828.03;5028247;28;1273;-80
2023/09/22 05:28:35;;;;;;;;;;;;;;;11.64;100.00;99829.00;5031664;28;1502;-80
2023/09/22 05:31:03;;;;;;;;;;;;;;;11.64;100.00;99831.59;5031543;28;1171;-80
2023/09/22 05:33:29;;;;;;;;;;;;;;;11.65;100.00;99833.22;5029340;28;1957;-78
2023/09/22 05:35:54;;;;;;;;;;;;;;;11.65;100.00;99833.22;5010905;28;1273;-80
2023/09/22 05:38:20;;;;;;;;;;;;;;;11.64;100.00;99842.00;5029989;28;1103;-80
2023/09/22 05:40:45;;;;;;;;;;;;;;;11.65;100.00;99843.63;5026069;28;1292;-80
2023/09/22 05:43:12;;;;;;;;;;;;;;;11.65;100.00;99848.81;5026700;28;1169;-80
2023/09/22 05:45:37;;;;;;;;;;;;;;;11.65;100.00;99848.81;5033259;28;1118;-80
2023/09/22 05:48:02;;;;;;;;;;;;;;;11.63;100.00;99850.72;5013195;28;1263;-79
2023/09/22 05:50:28;;;;;;;;;;;;;;;11.63;100.00;99850.72;5013917;28;1420;-80
2023/09/22 05:52:53;;;;;;;;;;;;;;;11.61;100.00;99852.69;5035047;28;1911;-79
2023/09/22 05:55:19;;;;;;;;;;;;;;;11.60;100.00;99843.28;5018504;28;1543;-80
2023/09/22 05:57:45;;;;;;;;;;;;;;;11.58;100.00;99847.78;5012881;28;1249;-80
2023/09/22 06:00:18;;;;;;;;;;;;;;;11.57;100.00;99856.53;5030316;28;1099;-79
2023/09/22 06:02:47;;;;;;;;;;;;;;;11.57;100.00;99861.75;5030273;28;1275;-80
2023/09/22 06:05:12;;;;;;;;;;;;;;;11.55;100.00;99868.88;5004935;28;1420;-81
2023/09/22 06:07:37;;;;;;;;;;;;;;;11.54;100.00;99859.47;5024771;28;1388;-79
2023/09/22 06:10:05;;;;;;;;;;;;;;;11.54;100.00;99877.66;5030175;28;1288;-80
2023/09/22 06:12:30;;;;;;;;;;;;;;;11.54;100.00;99880.25;5025159;28;1894;-80
2023/09/22 06:14:56;;;;;;;;;;;;;;;11.54;100.00;99882.03;5013608;28;1397;-80
2023/09/22 06:17:21;;;;;;;;;;;;;;;11.54;100.00;99882.84;5025535;28;1540;-78
2023/09/22 06:19:46;;;;;;;;;;;;;;;11.55;100.00;99879.28;5027738;28;1425;-81
2023/09/22 06:22:11;;;;;;;;;;;;;;;11.56;100.00;99870.50;5026979;28;1491;-80
2023/09/22 06:24:36;;;;;;;;;;;;;;;11.58;100.00;99885.94;5031352;28;1085;-81
2023/09/22 06:27:02;;;;;;;;;;;;;;;11.63;100.00;99876.69;5008631;28;1173;-80
2023/09/22 06:29:27;;;;;;;;;;;;;;;11.61;100.00;99883.84;5031454;28;1111;-80
2023/09/22 06:31:53;;;;;;;;;;;;;;;11.62;100.00;99875.09;5025470;28;1968;-79
2023/09/22 06:34:19;;;;;;;;;;;;;;;11.65;100.00;99879.16;5032141;28;975;-80
2023/09/22 06:36:46;;;;;;;;;;;;;;;11.67;100.00;99882.41;5025171;28;1119;-80
2023/09/22 06:39:12;;;;;;;;;;;;;;;11.68;100.00;99882.25;5026519;28;1817;-80
2023/09/22 06:41:37;;;;;;;;;;;;;;;11.72;100.00;99884.56;5030378;28;1206;-80
2023/09/22 06:44:02;;;;;;;;;;;;;;;11.75;100.00;99899.81;5023305;28;1153;-81
2023/09/22 06:46:28;;;;;;;;;;;;;;;11.78;100.00;99889.13;5020443;28;1334;-80
2023/09/22 06:48:53;;;;;;;;;;;;;;;11.81;100.00;99894.84;5027698;28;1800;-79
2023/09/22 06:51:18;;;;;;;;;;;;;;;11.86;100.00;99882.19;5022045;28;1428;-80
2023/09/22 06:53:44;;;;;;;;;;;;;;;11.90;100.00;99886.13;5033457;28;1906;-80
2023/09/22 06:56:09;;;;;;;;;;;;;;;11.95;100.00;99896.84;5034019;28;1190;-80
2023/09/22 06:58:36;;;;;;;;;;;;;;;12.00;100.00;99899.00;5029990;28;1221;-80
2023/09/22 07:01:11;;;;;;;;;;;;;;;12.06;100.00;99897.56;5026454;28;1178;-80
2023/09/22 07:03:37;;;;;;;;;;;;;;;12.11;100.00;99898.72;5017374;28;1455;-80
2023/09/22 07:06:03;;;;;;;;;;;;;;;12.16;100.00;99893.84;5022036;28;1029;-80
2023/09/22 07:08:29;;;;;;;;;;;;;;;12.20;100.00;99900.34;5020483;28;1523;-81
2023/09/22 07:10:59;;;;;;;;;;;;;;;12.26;100.00;99903.28;5026263;28;1241;-80
2023/09/22 07:13:25;;;;;;;;;;;;;;;12.34;100.00;99906.72;5026970;28;1898;-80
2023/09/22 07:15:53;;;;;;;;;;;;;;;12.39;100.00;99908.88;5025752;28;1304;-79
2023/09/22 07:18:18;;;;;;;;;;;;;;;12.45;100.00;99918.63;5016392;28;1383;-81
2023/09/22 07:20:44;;;;;;;;;;;;;;;12.51;100.00;99914.56;5005185;28;1497;-79
2023/09/22 07:23:09;;;;;;;;;;;;;;;12.55;100.00;99914.06;5027431;28;1242;-80
2023/09/22 07:25:34;;;;;;;;;;;;;;;12.61;100.00;99917.81;5029644;28;1084;-80
2023/09/22 07:28:00;;;;;;;;;;;;;;;12.66;100.00;99910.34;5033562;28;1475;-80
2023/09/22 07:30:28;;;;;;;;;;;;;;;12.71;100.00;99924.50;5030410;28;1331;-80
2023/09/22 07:32:53;;;;;;;;;;;;;;;12.76;100.00;99932.66;5030292;28;1971;-80
2023/09/22 07:35:18;;;;;;;;;;;;;;;12.83;100.00;99932.00;5027709;28;1498;-81
2023/09/22 07:37:45;;;;;;;;;;;;;;;12.86;100.00;99942.09;5025020;28;1400;-81
2023/09/22 07:40:10;;;;;;;;;;;;;;;12.90;100.00;99943.38;5025753;28;1333;-81
2023/09/22 07:42:36;;;;;;;;;;;;;;;12.92;100.00;99949.25;5011941;28;1291;-81
2023/09/22 07:45:02;;;;;;;;;;;;;;;12.95;100.00;99951.53;5031557;28;1252;-81
2023/09/22 07:47:28;;;;;;;;;;;;;;;12.99;100.00;99963.25;5014491;28;1542;-81
2023/09/22 07:49:57;;;;;;;;;;;;;;;13.03;100.00;99961.97;5004299;28;1454;-81
2023/09/22 07:52:22;;;;;;;;;;;;;;;13.06;100.00;99959.00;5008882;28;1903;-80
2023/09/22 07:54:48;;;;;;;;;;;;;;;13.10;100.00;99968.13;5023990;28;1190;-80
2023/09/22 07:57:14;;;;;;;;;;;;;;;13.13;100.00;99970.44;5023657;28;1224;-80
2023/09/22 07:59:39;;;;;;;;;;;;;;;13.20;100.00;99976.59;5009533;28;1663;-81
2023/09/22 08:02:05;;;;;;;;;;;;;;;13.25;100.00;99976.16;5008864;28;1423;-80
2023/09/22 08:04:31;;;;;;;;;;;;;;;13.32;100.00;99978.91;5015483;28;1310;-80
2023/09/22 08:06:58;;;;;;;;;;;;;;;13.36;100.00;99982.78;5030353;28;1492;-80
2023/09/22 08:09:24;;;;;;;;;;;;;;;13.43;100.00;99981.19;5034488;28;1245;-80
2023/09/22 08:11:49;;;;;;;;;;;;;;;13.47;100.00;99982.47;5034983;28;2012;-80
2023/09/22 08:14:15;;;;;;;;;;;;;;;13.52;100.00;99985.41;5029559;28;1025;-80
2023/09/22 08:16:40;;;;;;;;;;;;;;;13.57;100.00;99988.31;5012770;28;1307;-81
2023/09/22 08:19:11;;;;;;;;;;;;;;;13.65;100.00;99990.94;5027754;28;1507;-80
2023/09/22 08:21:38;;;;;;;;;;;;;;;13.69;100.00;99994.81;5032723;28;1575;-81
2023/09/22 08:24:03;;;;;;;;;;;;;;;13.67;100.00;99988.97;5014175;28;1342;-80
2023/09/22 08:26:30;;;;;;;;;;;;;;;13.61;100.00;99994.03;5038879;28;1232;-79
2023/09/22 08:28:55;;;;;;;;;;;;;;;13.57;100.00;99993.53;5016972;28;1318;-80
2023/09/22 08:31:21;;;;;;;;;;;;;;;13.55;100.00;99995.50;5013318;28;1288;-80
2023/09/22 08:33:46;;;;;;;;;;;;;;;13.57;100.00;100008.34;5026413;28;1969;-80
2023/09/22 08:36:12;;;;;;;;;;;;;;;13.66;100.00;100016.00;5017483;28;1247;-80
2023/09/22 08:38:37;;;;;;;;;;;;;;;13.77;100.00;100005.25;5025299;28;1174;-81
2023/09/22 08:41:03;;;;;;;;;;;;;;;13.91;100.00;100010.75;5014738;28;1226;-80
2023/09/22 08:43:32;;;;;;;;;;;;;;;14.03;100.00;100009.41;5032353;28;1361;-80
2023/09/22 08:45:57;;;;;;;;;;;;;;;14.09;100.00;100003.53;5016837;28;1323;-80
2023/09/22 08:48:24;;;;;;;;;;;;;;;14.11;100.00;100001.56;5031501;28;1314;-81
2023/09/22 08:50:49;;;;;;;;;;;;;;;14.12;99.29;100005.81;5033155;28;1154;-80
2023/09/22 08:53:14;;;;;;;;;;;;;;;13.93;99.09;100014.00;5033024;28;1898;-80
2023/09/22 08:55:40;;;;;;;;;;;;;;;13.82;98.64;100013.38;5014574;28;1536;-81
2023/09/22 08:58:05;;;;;;;;;;;;;;;13.81;98.08;100019.53;5025822;28;1392;-80
2023/09/22 09:00:30;;;;;;;;;;;;;;;13.84;98.98;100017.59;5010376;28;1402;-78
2023/09/22 09:02:58;;;;;;;;;;;;;;;13.89;98.75;100017.94;5025954;28;1269;-80
2023/09/22 09:05:27;;;;;;;;;;;;;;;14.02;97.93;100013.00;5032560;28;1590;-81
2023/09/22 09:07:53;;;;;;;;;;;;;;;13.93;97.84;100030.44;5013155;28;1848;-81
2023/09/22 09:10:34;;;;;;;;;;;;;;;13.97;97.01;100036.16;5029907;28;1499;-81
2023/09/22 09:13:03;;;;;;;;;;;;;;;13.96;94.55;100031.91;5024406;28;1963;-80
2023/09/22 09:15:42;;;;;;;;;;;;;;;13.86;95.96;100044.31;5021930;28;1392;-81
2023/09/22 09:18:09;;;;;;;;;;;;;;;14.00;94.96;100039.25;5037423;28;1176;-81
2023/09/22 09:20:36;;;;;;;;;;;;;;;14.04;95.71;100042.31;5035164;28;1281;-80
2023/09/22 09:23:12;;;;;;;;;;;;;;;14.12;95.90;100034.50;5031742;28;1277;-81
2023/09/22 09:25:44;;;;;;;;;;;;;;;14.23;94.75;100031.53;5032193;28;1503;-82
2023/09/22 09:28:10;;;;;;;;;;;;;;;14.34;93.86;100044.19;5016724;28;1400;-81
2023/09/22 09:30:36;;;;;;;;;;;;;;;14.40;94.08;100040.09;5027990;28;1182;-78
2023/09/22 09:33:12;;;;;;;;;;;;;;;14.49;93.79;100046.13;5034105;28;1906;-81
2023/09/22 09:35:38;;;;;;;;;;;;;;;14.57;93.70;100048.72;5034373;28;1194;-81
2023/09/22 09:38:03;;;;;;;;;;;;;;;14.67;92.81;100046.69;5018139;28;1535;-79
2023/09/22 09:40:29;;;;;;;;;;;;;;;14.75;92.28;100054.50;5027761;28;1241;-81
2023/09/22 09:42:54;;;;;;;;;;;;;;;14.85;92.08;100047.25;5036519;28;1225;-80
2023/09/22 09:45:23;;;;;;;;;;;;;;;14.92;92.38;100051.81;5035605;28;1177;-81
2023/09/22 09:47:51;;;;;;;;;;;;;;;15.02;91.50;100052.38;5031754;28;1316;-80
2023/09/22 09:50:18;;;;;;;;;;;;;;;15.07;91.06;100053.47;5034812;28;1249;-81
2023/09/22 09:52:49;;;;;;;;;;;;;;;15.15;89.50;100052.63;5028536;28;1922;-80
2023/09/22 09:55:14;;;;;;;;;;;;;;;15.26;89.59;100054.84;5027698;28;1206;-81
2023/09/22 09:57:44;;;;;;;;;;;;;;;15.32;89.65;100059.38;5029304;28;1416;-81
2023/09/22 10:00:14;;;;;;;;;;;;;;;15.40;89.82;100064.50;5024845;28;1671;-78
2023/09/22 10:02:45;;;;;;;;;;;;;;;15.46;89.44;100059.59;5022366;28;1199;-78
2023/09/22 10:05:14;;;;;;;;;;;;;;;15.57;89.42;100041.69;5011992;28;1222;-80
2023/09/22 10:07:41;;;;;;;;;;;;;;;15.73;88.88;100051.22;5023255;28;1374;-79
2023/09/22 10:10:07;;;;;;;;;;;;;;;15.84;88.89;100042.13;5009826;28;1568;-81
2023/09/22 10:12:32;;;;;;;;;;;;;;;16.00;88.18;100051.59;5009391;28;1930;-80
2023/09/22 10:15:01;;;;;;;;;;;;;;;16.07;87.24;100047.28;5026537;28;1272;-81
2023/09/22 10:17:27;;;;;;;;;;;;;;;16.13;84.92;100033.50;5030367;28;1251;-82
2023/09/22 10:19:52;;;;;;;;;;;;;;;16.12;84.87;100039.72;5029322;28;1332;-79
2023/09/22 10:22:17;;;;;;;;;;;;;;;16.12;84.61;100044.97;5031807;28;1500;-82
2023/09/22 10:24:42;;;;;;;;;;;;;;;16.14;83.81;100038.53;5010820;28;1640;-80
2023/09/22 10:27:11;;;;;;;;;;;;;;;16.22;84.67;100040.25;5035790;28;1405;-81
2023/09/22 10:29:54;;;;;;;;;;;;;;;16.32;84.60;100047.81;5035423;28;1245;-80
2023/09/22 10:32:21;;;;;;;;;;;;;;;16.37;84.45;100048.09;5012321;28;2008;-80
2023/09/22 10:34:55;;;;;;;;;;;;;;;16.40;84.27;100043.31;5030749;28;1269;-79
2023/09/22 10:37:22;;;;;;;;;;;;;;;16.36;84.10;100042.06;5032437;28;1307;-80
2023/09/22 10:39:51;;;;;;;;;;;;;;;16.32;83.86;100056.47;5027095;28;1464;-80
2023/09/22 10:42:16;;;;;;;;;;;;;;;16.28;82.92;100057.03;5031447;28;1106;-81
2023/09/22 10:44:54;;;;;;;;;;;;;;;16.14;82.90;100056.84;5032953;28;1091;-81
2023/09/22 10:47:19;;;;;;;;;;;;;;;16.18;81.22;100054.69;5032476;28;1071;-80
2023/09/22 10:49:44;;;;;;;;;;;;;;;16.22;81.18;100055.94;5031142;28;1003;-81
2023/09/22 10:52:12;;;;;;;;;;;;;;;16.16;81.09;100051.44;5026952;28;2322;-81
2023/09/22 10:54:41;;;;;;;;;;;;;;;16.31;80.97;100049.63;5032390;28;1094;-81
2023/09/22 10:57:07;;;;;;;;;;;;;;;16.42;81.31;100051.78;5034937;28;1410;-81
2023/09/22 10:59:36;;;;;;;;;;;;;;;16.57;80.17;100048.34;5029285;28;1344;-81
2023/09/22 11:02:02;;;;;;;;;;;;;;;16.68;79.14;100045.25;5027107;28;1417;-79
2023/09/22 11:04:42;;;;;;;;;;;;;;;16.60;79.46;100055.84;5028608;28;1202;-80
2023/09/22 11:07:09;;;;;;;;;;;;;;;16.52;78.57;100050.72;5008540;28;1273;-81
2023/09/22 11:09:34;;;;;;;;;;;;;;;16.41;79.06;100060.66;5011761;28;1236;-80
2023/09/22 11:12:00;;;;;;;;;;;;;;;16.42;78.55;100046.56;5009312;28;1922;-80
2023/09/22 11:14:25;;;;;;;;;;;;;;;16.46;78.37;100045.22;5024833;28;1479;-80
2023/09/22 11:16:50;;;;;;;;;;;;;;;16.51;77.71;100054.31;5031250;28;1072;-81
2023/09/22 11:19:15;;;;;;;;;;;;;;;16.53;76.83;100054.94;5030720;28;1035;-80
2023/09/22 11:21:41;;;;;;;;;;;;;;;16.56;78.14;100054.56;5035822;28;1102;-80
2023/09/22 11:24:07;;;;;;;;;;;;;;;16.60;78.10;100061.06;5021475;28;1572;-81
2023/09/22 11:26:39;;;;;;;;;;;;;;;16.57;78.36;100064.03;5017014;28;1512;-80
2023/09/22 11:29:04;;;;;;;;;;;;;;;16.60;77.65;100063.69;5028388;28;1409;-80
2023/09/22 11:31:32;;;;;;;;;;;;;;;16.60;77.39;100061.06;5028519;28;1264;-81
2023/09/22 11:34:03;;;;;;;;;;;;;;;16.60;77.69;100059.25;5030884;28;1961;-79
2023/09/22 11:36:44;;;;;;;;;;;;;;;16.53;77.40;100060.19;5038123;28;1193;-80
2023/09/22 11:39:22;;;;;;;;;;;;;;;16.44;77.09;100072.53;5032518;28;1113;-81
2023/09/22 11:41:48;;;;;;;;;;;;;;;16.38;76.87;100071.47;5027371;28;1415;-79
2023/09/22 11:44:14;;;;;;;;;;;;;;;16.45;76.34;100080.22;5030937;28;1499;-80
2023/09/22 11:46:44;;;;;;;;;;;;;;;16.46;76.12;100074.00;5011893;28;1598;-80
2023/09/22 11:49:12;;;;;;;;;;;;;;;16.47;76.87;100080.03;5030330;28;1487;-80
2023/09/22 11:51:40;;;;;;;;;;;;;;;16.48;76.56;100080.84;5025434;28;1297;-80
2023/09/22 11:54:09;;;;;;;;;;;;;;;16.61;76.97;100081.00;5025719;28;1890;-81
2023/09/22 11:56:34;;;;;;;;;;;;;;;16.82;76.60;100078.50;5025503;28;1268;-81
2023/09/22 11:59:17;;;;;;;;;;;;;;;16.98;77.41;100078.28;5015074;28;1386;-79
2023/09/22 12:01:43;;;;;;;;;;;;;;;17.20;77.40;100079.13;5026659;28;1219;-79
2023/09/22 12:04:09;;;;;;;;;;;;;;;17.39;74.65;100080.28;5022319;28;1392;-80
2023/09/22 12:06:35;;;;;;;;;;;;;;;17.45;72.67;100090.03;5008130;28;1285;-79
2023/09/22 12:09:01;;;;;;;;;;;;;;;17.43;72.97;100081.56;5028443;28;1031;-80
2023/09/22 12:11:26;;;;;;;;;;;;;;;17.46;73.72;100081.16;5024237;28;1061;-81
2023/09/22 12:13:51;;;;;;;;;;;;;;;17.58;72.62;100096.38;5030059;28;1902;-80
2023/09/22 12:16:16;;;;;;;;;;;;;;;17.65;72.04;100092.00;5031496;28;1738;-81
2023/09/22 12:18:42;;;;;;;;;;;;;;;17.74;72.85;100088.28;5012813;28;1728;-81
2023/09/22 12:21:07;;;;;;;;;;;;;;;17.80;70.05;100086.72;5020290;28;1410;-79
2023/09/22 12:23:33;;;;;;;;;;;;;;;17.76;71.62;100081.84;5030768;28;1085;-80
2023/09/22 12:25:58;;;;;;;;;;;;;;;17.79;71.22;100085.91;5036761;28;1312;-81
2023/09/22 12:28:23;;;;;;;;;;;;;;;17.80;70.92;100098.03;5036591;28;1431;-80
2023/09/22 12:30:50;;;;;;;;;;;;;;;17.90;71.77;100093.25;5030376;28;1009;-81
2023/09/22 12:33:15;;;;;;;;;;;;;;;18.04;70.69;100089.72;5039568;28;1898;-80
2023/09/22 12:35:41;;;;;;;;;;;;;;;18.05;69.23;100095.78;5032944;28;1245;-80
2023/09/22 12:38:06;;;;;;;;;;;;;;;18.05;69.37;100091.34;5036036;28;1693;-80
2023/09/22 12:40:31;;;;;;;;;;;;;;;18.09;68.63;100088.34;5027664;28;1149;-81